createdAt,value
2022-12-03T00:01:18.885Z,42.50
2022-12-03T00:04:00.862Z,44.50
2022-12-03T00:06:34.700Z,44.40
2022-12-03T00:09:07.332Z,43.80
2022-12-03T00:11:39.417Z,42.40
2022-12-03T00:14:11.361Z,41.50
2022-12-03T00:16:43.262Z,44.90
2022-12-03T00:19:15.166Z,42.70
2022-12-03T00:21:47.590Z,43.80
2022-12-03T00:24:19.407Z,42.40
2022-12-03T00:26:51.314Z,39.30
2022-12-03T00:29:23.137Z,44.50
2022-12-03T00:31:54.912Z,44.70
2022-12-03T00:34:26.751Z,45.40
2022-12-03T00:36:58.677Z,39.50
2022-12-03T00:39:30.489Z,42.90
2022-12-03T00:42:02.531Z,45.30
2022-12-03T00:44:34.436Z,42.60
2022-12-03T00:47:06.468Z,42.60
2022-12-03T00:49:38.571Z,43.90
2022-12-03T00:52:10.583Z,45.70
2022-12-03T00:54:42.438Z,42.60
2022-12-03T00:57:14.320Z,42.00
2022-12-03T00:59:46.241Z,40.90
2022-12-03T01:02:18.193Z,39.90
2022-12-03T01:04:50.279Z,43.20
2022-12-03T01:07:22.266Z,41.70
2022-12-03T01:09:54.053Z,44.60
2022-12-03T01:12:26.237Z,45.70
2022-12-03T01:14:58.333Z,42.00
2022-12-03T01:17:30.290Z,41.70
2022-12-03T01:20:02.382Z,43.60
2022-12-03T01:22:34.251Z,43.70
2022-12-03T01:25:06.572Z,46.70
2022-12-03T01:27:38.364Z,48.60
2022-12-03T01:30:15.489Z,46.70
2022-12-03T01:32:47.483Z,49.30
2022-12-03T01:35:19.454Z,48.20
2022-12-03T01:37:51.303Z,46.80
2022-12-03T01:40:24.111Z,47.90
2022-12-03T01:42:56.073Z,47.90
2022-12-03T01:45:28.295Z,43.70
2022-12-03T01:48:00.889Z,42.40
2022-12-03T01:50:34.996Z,46.10
2022-12-03T01:53:07.037Z,42.90
2022-12-03T01:55:39.642Z,45.90
2022-12-03T01:58:16.556Z,43.60
2022-12-03T02:00:48.525Z,43.90
2022-12-03T02:03:23.604Z,41.90
2022-12-03T02:05:57.488Z,46.10
2022-12-03T02:08:34.717Z,44.90
2022-12-03T02:11:13.260Z,42.30
2022-12-03T02:13:46.078Z,41.00
2022-12-03T02:16:18.046Z,36.50
2022-12-03T02:18:50.228Z,40.00
2022-12-03T02:21:29.092Z,40.20
2022-12-03T02:24:11.698Z,38.30
2022-12-03T02:26:43.586Z,40.50
2022-12-03T02:29:15.619Z,44.20
2022-12-03T02:31:47.626Z,40.00
2022-12-03T02:34:36.828Z,44.10
2022-12-03T02:37:12.694Z,37.60
2022-12-03T02:39:48.841Z,42.30
2022-12-03T02:42:37.900Z,42.20
2022-12-03T02:45:16.345Z,44.70
2022-12-03T02:47:50.905Z,44.60
2022-12-03T02:50:30.521Z,40.60
2022-12-03T02:53:06.440Z,45.90
2022-12-03T02:55:38.842Z,43.80
2022-12-03T02:58:12.122Z,44.90
2022-12-03T03:00:45.165Z,48.10
2022-12-03T03:03:18.591Z,45.60
2022-12-03T03:05:51.580Z,44.80
2022-12-03T03:08:24.502Z,39.30
2022-12-03T03:10:57.323Z,45.10
2022-12-03T03:13:30.980Z,40.90
2022-12-03T03:16:05.229Z,46.00
2022-12-03T03:18:37.515Z,44.80
2022-12-03T03:21:09.963Z,43.20
2022-12-03T03:23:41.773Z,44.20
2022-12-03T03:26:16.297Z,45.40
2022-12-03T03:28:51.197Z,47.30
2022-12-03T03:31:24.958Z,44.20
2022-12-03T03:33:57.178Z,43.20
2022-12-03T03:36:29.054Z,45.20
2022-12-03T03:39:00.915Z,47.10
2022-12-03T03:41:33.910Z,42.00
2022-12-03T03:44:07.624Z,47.40
2022-12-03T03:46:40.837Z,46.10
2022-12-03T03:49:13.589Z,44.10
2022-12-03T03:51:46.061Z,43.60
2022-12-03T03:54:18.762Z,45.50
2022-12-03T03:56:50.918Z,44.00
2022-12-03T03:59:22.811Z,37.10
2022-12-03T04:01:54.753Z,42.00
2022-12-03T04:04:28.950Z,39.10
2022-12-03T04:07:01.138Z,44.30
2022-12-03T04:09:33.001Z,40.20
2022-12-03T04:12:22.354Z,42.90
2022-12-03T04:14:54.836Z,41.60
2022-12-03T04:17:27.269Z,42.00
2022-12-03T04:19:59.071Z,44.20
2022-12-03T04:22:42.790Z,40.70
2022-12-03T04:25:31.467Z,43.00
2022-12-03T04:28:22.958Z,43.90
2022-12-03T04:30:54.805Z,42.00
2022-12-03T04:33:44.562Z,40.90
2022-12-03T04:36:16.422Z,43.30
2022-12-03T04:38:48.436Z,42.50
2022-12-03T04:41:20.250Z,37.40
2022-12-03T04:44:09.295Z,44.40
2022-12-03T04:46:41.242Z,44.40
2022-12-03T04:49:13.185Z,43.40
2022-12-03T04:51:45.016Z,41.00
2022-12-03T04:54:16.940Z,37.30
2022-12-03T04:56:48.787Z,40.50
2022-12-03T04:59:20.968Z,43.40
2022-12-03T05:01:52.906Z,42.90
2022-12-03T05:04:24.903Z,44.90
2022-12-03T05:06:57.245Z,34.40
2022-12-03T05:09:29.152Z,43.50
2022-12-03T05:12:00.945Z,43.10
2022-12-03T05:14:32.815Z,40.80
2022-12-03T05:17:04.751Z,40.90
2022-12-03T05:19:54.724Z,41.90
2022-12-03T05:22:26.503Z,40.50
2022-12-03T05:24:58.377Z,40.20
2022-12-03T05:27:32.883Z,45.10
2022-12-03T05:30:04.899Z,45.60
2022-12-03T05:32:36.758Z,40.60
2022-12-03T05:35:12.520Z,41.30
2022-12-03T05:37:45.004Z,40.40
2022-12-03T05:40:25.297Z,43.80
2022-12-03T05:42:58.171Z,38.70
2022-12-03T05:45:31.811Z,43.40
2022-12-03T05:48:04.552Z,43.20
2022-12-03T05:50:38.990Z,47.00
2022-12-03T05:53:11.258Z,42.50
2022-12-03T05:55:43.274Z,42.00
2022-12-03T05:58:15.091Z,41.50
2022-12-03T06:00:47.493Z,35.70
2022-12-03T06:03:19.529Z,41.70
2022-12-03T06:05:51.492Z,34.50
2022-12-03T06:08:23.411Z,35.10
2022-12-03T06:10:55.287Z,37.00
2022-12-03T06:13:27.225Z,38.30
2022-12-03T06:15:59.290Z,38.20
2022-12-03T06:18:31.273Z,41.60
2022-12-03T06:21:03.055Z,38.00
2022-12-03T06:23:34.917Z,40.40
2022-12-03T06:26:06.862Z,38.00
2022-12-03T06:28:38.717Z,35.60
2022-12-03T06:31:10.594Z,37.60
2022-12-03T06:33:42.547Z,38.50
2022-12-03T06:36:16.741Z,38.00
2022-12-03T06:38:51.759Z,37.00
2022-12-03T06:41:23.781Z,34.10
2022-12-03T06:43:55.581Z,34.90
2022-12-03T06:46:27.511Z,37.60
2022-12-03T06:48:59.385Z,38.80
2022-12-03T06:51:31.575Z,38.40
2022-12-03T06:54:03.854Z,37.00
2022-12-03T06:56:40.387Z,40.50
2022-12-03T06:59:16.769Z,37.80
2022-12-03T07:01:49.283Z,38.80
2022-12-03T07:04:21.117Z,40.00
2022-12-03T07:06:53.318Z,41.40
2022-12-03T07:09:25.150Z,41.60
2022-12-03T07:11:57.127Z,35.10
2022-12-03T07:14:29.014Z,38.20
2022-12-03T07:17:00.906Z,36.80
2022-12-03T07:19:33.258Z,36.10
2022-12-03T07:22:05.966Z,35.60
2022-12-03T07:24:37.930Z,34.30
2022-12-03T07:27:09.887Z,37.50
2022-12-03T07:29:41.718Z,39.10
2022-12-03T07:32:15.351Z,37.50
2022-12-03T07:34:47.251Z,37.80
2022-12-03T07:37:23.043Z,40.70
2022-12-03T07:39:55.392Z,35.60
2022-12-03T07:42:27.279Z,37.70
2022-12-03T07:44:59.099Z,37.60
2022-12-03T07:47:31.036Z,32.10
2022-12-03T07:50:02.849Z,31.10
2022-12-03T07:52:42.110Z,32.70
2022-12-03T07:55:14.508Z,35.60
2022-12-03T07:57:48.371Z,29.90
2022-12-03T08:00:26.544Z,39.00
2022-12-03T08:02:58.453Z,35.10
2022-12-03T08:05:30.750Z,31.60
2022-12-03T08:08:02.741Z,38.80
2022-12-03T08:10:34.679Z,35.80
2022-12-03T08:13:12.949Z,30.80
2022-12-03T08:15:45.375Z,36.50
2022-12-03T08:18:21.488Z,38.30
2022-12-03T08:20:54.253Z,32.90
2022-12-03T08:23:27.934Z,35.70
2022-12-03T08:26:02.240Z,38.10
2022-12-03T08:28:34.123Z,35.40
2022-12-03T08:31:18.256Z,34.90
2022-12-03T08:33:52.136Z,36.00
2022-12-03T08:36:36.526Z,35.00
2022-12-03T08:39:24.486Z,37.20
2022-12-03T08:42:16.877Z,31.20
2022-12-03T08:44:49.087Z,37.20
2022-12-03T08:50:29.678Z,33.40
2022-12-03T08:53:12.927Z,37.70
2022-12-03T08:55:53.139Z,37.60
2022-12-03T08:58:40.389Z,38.70
2022-12-03T09:07:27.410Z,36.30
2022-12-03T09:09:59.715Z,37.30
2022-12-03T09:12:31.909Z,37.10
2022-12-03T09:15:03.754Z,38.70
2022-12-03T09:17:36.894Z,41.10
2022-12-03T09:20:14.474Z,40.50
2022-12-03T09:22:46.455Z,33.70
2022-12-03T09:25:18.458Z,38.80
2022-12-03T09:27:50.405Z,38.80
2022-12-03T09:30:28.746Z,38.20
2022-12-03T09:33:00.760Z,36.80
2022-12-03T09:35:32.537Z,39.90
2022-12-03T09:38:04.366Z,43.40
2022-12-03T09:40:36.754Z,43.90
2022-12-03T09:43:08.690Z,41.90
2022-12-03T09:45:40.718Z,36.80
2022-12-03T09:48:14.221Z,37.70
2022-12-03T09:50:46.897Z,37.40
2022-12-03T09:53:20.902Z,34.10
2022-12-03T09:55:52.943Z,36.60
2022-12-03T09:58:24.958Z,39.10
2022-12-03T10:00:58.182Z,36.60
2022-12-03T10:03:33.145Z,36.20
2022-12-03T10:06:05.267Z,38.20
2022-12-03T10:08:37.200Z,35.30
2022-12-03T10:11:09.652Z,38.20
2022-12-03T10:13:41.838Z,37.10
2022-12-03T10:16:16.333Z,39.40
2022-12-03T10:18:51.366Z,36.00
2022-12-03T10:21:27.112Z,32.80
2022-12-03T10:24:26.616Z,39.70
2022-12-03T10:27:00.708Z,38.30
2022-12-03T10:33:18.829Z,42.70
2022-12-03T10:35:51.502Z,37.80
2022-12-03T10:38:24.562Z,38.90
2022-12-03T10:40:58.127Z,38.70
2022-12-03T10:43:30.186Z,40.40
2022-12-03T10:46:18.478Z,43.70
2022-12-03T10:49:11.179Z,39.50
2022-12-03T10:51:43.419Z,39.00
2022-12-03T10:54:22.067Z,37.00
2022-12-03T10:56:54.630Z,35.30
2022-12-03T10:59:29.505Z,37.80
2022-12-03T11:02:01.894Z,39.90
2022-12-03T11:04:37.806Z,42.20
2022-12-03T11:13:55.256Z,41.40
2022-12-03T11:17:07.249Z,39.40
2022-12-03T11:19:48.360Z,39.60
2022-12-03T11:22:47.534Z,42.90
2022-12-03T11:25:50.987Z,41.80
2022-12-03T11:28:54.524Z,44.20
2022-12-03T11:35:15.160Z,43.70
2022-12-03T11:38:27.168Z,42.10
2022-12-03T11:41:20.099Z,41.50
2022-12-03T11:44:29.390Z,42.70
2022-12-03T11:47:15.426Z,43.10
2022-12-03T11:49:51.155Z,42.80
2022-12-03T11:52:31.198Z,43.40
2022-12-03T11:55:16.068Z,40.70
2022-12-03T11:58:16.374Z,41.30
2022-12-03T12:00:56.380Z,40.90
2022-12-03T12:03:40.845Z,37.70
2022-12-03T12:06:17.885Z,44.00
2022-12-03T12:09:00.430Z,43.60
2022-12-03T12:11:35.865Z,43.60
2022-12-03T12:14:09.587Z,40.60
2022-12-03T12:16:56.089Z,43.50
2022-12-03T12:23:29.667Z,41.20
2022-12-03T12:26:09.772Z,46.90
2022-12-03T12:28:45.039Z,48.60
2022-12-03T12:31:16.966Z,50.30
2022-12-03T12:34:12.499Z,50.60
2022-12-03T12:36:44.675Z,49.80
2022-12-03T12:39:18.435Z,53.70
2022-12-03T12:41:52.998Z,51.50
2022-12-03T12:44:26.586Z,54.30
2022-12-03T12:47:03.970Z,51.00
2022-12-03T12:49:35.950Z,52.20
2022-12-03T12:55:05.504Z,47.70
2022-12-03T12:57:44.864Z,48.90
2022-12-03T13:00:29.528Z,48.30
2022-12-03T13:03:04.073Z,47.90
2022-12-03T13:08:54.673Z,46.80
2022-12-03T13:11:41.528Z,48.90
2022-12-03T13:17:55.815Z,46.70
2022-12-03T13:26:58.602Z,60.70
2022-12-03T13:29:30.856Z,58.90
2022-12-03T13:32:15.236Z,52.80
2022-12-03T13:34:47.849Z,53.70
2022-12-03T13:37:23.638Z,54.70
2022-12-03T13:39:58.471Z,52.00
2022-12-03T13:42:42.047Z,56.00
2022-12-03T13:45:34.784Z,60.80
2022-12-03T13:48:23.765Z,58.40
2022-12-03T13:50:56.422Z,63.10
2022-12-03T13:53:34.084Z,61.70
2022-12-03T13:56:30.101Z,62.50
2022-12-03T13:59:04.428Z,63.70
2022-12-03T14:04:59.803Z,57.50
2022-12-03T14:07:32.336Z,56.50
2022-12-03T14:10:04.402Z,58.50
2022-12-03T14:12:49.973Z,61.30
2022-12-03T14:15:26.334Z,70.90
2022-12-03T14:18:10.869Z,66.30
2022-12-03T14:21:01.591Z,64.50
2022-12-03T14:23:33.671Z,61.40
2022-12-03T14:26:17.736Z,61.00
2022-12-03T14:28:49.409Z,54.50
2022-12-03T14:31:21.122Z,66.70
2022-12-03T14:33:59.126Z,59.10
2022-12-03T14:36:30.878Z,69.40
2022-12-03T14:39:24.707Z,63.20
2022-12-03T14:42:15.081Z,63.10
2022-12-03T14:44:48.558Z,62.20
2022-12-03T14:47:31.965Z,59.10
2022-12-03T14:50:14.466Z,61.10
2022-12-03T14:52:58.167Z,62.00
2022-12-03T14:55:33.972Z,64.00
2022-12-03T14:58:26.949Z,60.00
2022-12-03T15:00:58.603Z,61.10
2022-12-03T15:03:31.877Z,58.20
2022-12-03T15:06:03.525Z,59.10
2022-12-03T15:08:46.718Z,66.40
2022-12-03T15:14:44.244Z,53.50
2022-12-03T15:24:03.563Z,66.20
2022-12-03T15:26:38.130Z,64.90
2022-12-03T15:29:23.296Z,63.40
2022-12-03T15:31:55.066Z,61.30
2022-12-03T15:35:01.971Z,59.50
2022-12-03T15:37:34.486Z,58.40
2022-12-03T15:40:11.330Z,62.90
2022-12-03T15:42:43.517Z,58.40
2022-12-03T15:45:15.761Z,67.60
2022-12-03T15:47:47.707Z,66.20
2022-12-03T15:50:19.748Z,58.30
2022-12-03T15:52:51.642Z,61.00
2022-12-03T15:55:23.572Z,71.70
2022-12-03T15:57:55.414Z,74.20
2022-12-03T16:00:27.944Z,67.60
2022-12-03T16:03:04.005Z,68.50
2022-12-03T16:05:38.208Z,64.20
2022-12-03T16:08:09.902Z,61.80
2022-12-03T16:10:46.196Z,61.60
2022-12-03T16:23:37.345Z,58.00
2022-12-03T16:26:12.200Z,55.50
2022-12-03T16:28:43.940Z,62.60
2022-12-03T16:31:20.727Z,60.00
2022-12-03T16:34:00.072Z,63.50
2022-12-03T16:36:39.489Z,61.60
2022-12-03T16:39:50.846Z,58.50
2022-12-03T16:42:45.069Z,57.70
2022-12-03T16:45:53.594Z,59.90
2022-12-03T16:48:25.687Z,61.00
2022-12-03T16:50:59.169Z,58.60
2022-12-03T16:53:41.710Z,61.70
2022-12-03T16:56:37.792Z,64.00
2022-12-03T16:59:09.831Z,64.30
2022-12-03T17:01:41.827Z,66.70
2022-12-03T17:04:14.035Z,64.30
2022-12-03T17:06:46.012Z,64.40
2022-12-03T17:09:17.927Z,70.30
2022-12-03T17:11:50.019Z,59.60
2022-12-03T17:14:22.287Z,62.70
2022-12-03T17:16:54.207Z,63.60
2022-12-03T17:19:25.982Z,58.80
2022-12-03T17:21:59.863Z,65.00
2022-12-03T17:24:31.783Z,65.00
2022-12-03T17:27:06.288Z,64.20
2022-12-03T17:29:38.207Z,66.60
2022-12-03T17:32:10.363Z,69.00
2022-12-03T17:34:42.460Z,71.70
2022-12-03T17:37:15.044Z,74.70
2022-12-03T17:39:47.025Z,73.20
2022-12-03T17:42:18.987Z,76.60
2022-12-03T17:44:50.606Z,82.10
2022-12-03T17:47:22.263Z,76.00
2022-12-03T17:49:54.081Z,78.00
2022-12-03T17:52:25.903Z,75.00
2022-12-03T17:55:18.037Z,69.30
2022-12-03T17:57:49.208Z,70.50
2022-12-03T18:00:30.208Z,71.80
2022-12-03T18:03:01.855Z,71.40
2022-12-03T18:05:33.556Z,60.50
2022-12-03T18:08:05.461Z,63.80
2022-12-03T18:10:38.764Z,67.30
2022-12-03T18:13:10.469Z,65.50
2022-12-03T18:15:42.113Z,65.70
2022-12-03T18:18:14.001Z,69.90
2022-12-03T18:20:45.675Z,68.90
2022-12-03T18:23:17.410Z,70.80
2022-12-03T18:25:49.146Z,69.00
2022-12-03T18:28:21.047Z,75.20
2022-12-03T18:30:53.109Z,72.10
2022-12-03T18:33:25.238Z,72.70
2022-12-03T18:35:59.109Z,72.20
2022-12-03T18:38:34.622Z,73.30
2022-12-03T18:41:06.416Z,72.30
2022-12-03T18:43:38.147Z,72.60
2022-12-03T18:46:51.295Z,74.60
2022-12-03T18:49:06.556Z,65.90
2022-12-03T18:51:43.351Z,76.70
2022-12-03T18:54:15.819Z,80.60
2022-12-03T18:56:47.466Z,75.90
2022-12-03T18:59:20.658Z,78.50
2022-12-03T19:01:52.374Z,74.50
2022-12-03T19:04:24.258Z,74.00
2022-12-03T19:06:55.986Z,76.60
2022-12-03T19:09:27.768Z,81.10
2022-12-03T19:11:59.425Z,79.60
2022-12-03T19:14:31.906Z,69.90
2022-12-03T19:17:03.964Z,71.10
2022-12-03T19:19:36.372Z,77.10
2022-12-03T19:22:07.992Z,78.80
2022-12-03T19:24:39.674Z,74.40
2022-12-03T19:27:11.417Z,78.70
2022-12-03T19:29:43.239Z,79.20
2022-12-03T19:32:14.949Z,75.20
2022-12-03T19:34:46.669Z,73.30
2022-12-03T19:37:18.346Z,70.00
2022-12-03T19:39:53.463Z,69.70
2022-12-03T19:42:25.704Z,66.00
2022-12-03T19:44:57.440Z,71.50
2022-12-03T19:47:29.159Z,70.10
2022-12-03T19:50:01.133Z,66.00
2022-12-03T19:52:35.279Z,68.60
2022-12-03T19:55:08.039Z,70.90
2022-12-03T19:57:42.242Z,68.50
2022-12-03T20:00:24.972Z,70.80
2022-12-03T20:02:56.823Z,67.10
2022-12-03T20:05:33.158Z,77.20
2022-12-03T20:08:06.488Z,73.20
2022-12-03T20:10:38.390Z,73.80
2022-12-03T20:13:10.128Z,77.20
2022-12-03T20:15:41.765Z,76.10
2022-12-03T20:18:13.418Z,78.30
2022-12-03T20:20:45.071Z,78.90
2022-12-03T20:23:17.002Z,74.10
2022-12-03T20:25:48.669Z,77.90
2022-12-03T20:28:20.529Z,79.20
2022-12-03T20:31:00.737Z,68.10
2022-12-03T20:33:32.723Z,78.30
2022-12-03T20:36:04.835Z,79.50
2022-12-03T20:38:37.257Z,74.70
2022-12-03T20:41:12.412Z,73.10
2022-12-03T20:43:44.288Z,69.50
2022-12-03T20:46:18.461Z,71.00
2022-12-03T20:48:54.127Z,76.40
2022-12-03T20:51:28.164Z,73.30
2022-12-03T20:54:00.911Z,74.40
2022-12-03T20:56:35.796Z,70.60
2022-12-03T20:59:09.468Z,73.00
2022-12-03T21:01:41.540Z,73.00
2022-12-03T21:04:16.191Z,74.30
2022-12-03T21:06:48.321Z,70.10
2022-12-03T21:09:20.084Z,74.40
2022-12-03T21:11:51.783Z,68.10
2022-12-03T21:14:24.967Z,76.00
2022-12-03T21:17:08.536Z,70.90
2022-12-03T21:19:41.193Z,71.60
2022-12-03T21:22:12.912Z,70.70
2022-12-03T21:24:44.686Z,63.60
2022-12-03T21:27:21.366Z,72.60
2022-12-03T21:29:55.382Z,72.10
2022-12-03T21:32:27.438Z,69.60
2022-12-03T21:34:59.083Z,73.60
2022-12-03T21:37:31.048Z,71.60
2022-12-03T21:40:02.911Z,68.50
2022-12-03T21:42:37.183Z,68.50
2022-12-03T21:45:10.477Z,72.10
2022-12-03T21:47:42.282Z,71.50
2022-12-03T21:50:15.963Z,69.60
2022-12-03T21:52:47.628Z,74.00
2022-12-03T21:55:19.491Z,69.50
2022-12-03T21:57:54.055Z,68.70
2022-12-03T22:00:27.558Z,73.40
2022-12-03T22:02:59.266Z,70.90
2022-12-03T22:05:31.036Z,70.90
2022-12-03T22:08:02.874Z,65.00
2022-12-03T22:10:34.657Z,70.00
2022-12-03T22:13:06.329Z,70.40
2022-12-03T22:15:40.560Z,69.40
2022-12-03T22:18:14.574Z,67.20
2022-12-03T22:20:46.381Z,70.70
2022-12-03T22:23:18.059Z,66.40
2022-12-03T22:25:57.865Z,67.90
2022-12-03T22:28:31.724Z,71.20
2022-12-03T22:31:05.910Z,63.80
2022-12-03T22:33:38.504Z,62.70
2022-12-03T22:36:19.916Z,72.80
2022-12-03T22:38:52.280Z,69.90
2022-12-03T22:41:23.966Z,60.90
2022-12-03T22:43:55.803Z,73.40
2022-12-03T22:46:28.121Z,69.80
2022-12-03T22:49:06.432Z,67.30
2022-12-03T22:51:38.626Z,68.50
2022-12-03T22:54:11.675Z,71.10
2022-12-03T22:56:43.732Z,66.20
2022-12-03T22:59:15.633Z,71.50
2022-12-03T23:01:47.480Z,70.40
2022-12-03T23:04:19.207Z,72.20
2022-12-03T23:06:54.038Z,68.90
2022-12-03T23:09:25.757Z,66.50
2022-12-03T23:11:57.474Z,65.80
2022-12-03T23:14:29.505Z,66.10
2022-12-03T23:17:01.135Z,66.10
2022-12-03T23:19:32.861Z,64.90
2022-12-03T23:22:04.563Z,68.30
2022-12-03T23:24:36.248Z,69.10
2022-12-03T23:27:08.099Z,66.90
2022-12-03T23:29:40.074Z,67.30
2022-12-03T23:32:11.702Z,60.30
2022-12-03T23:34:46.029Z,64.20
2022-12-03T23:37:17.701Z,64.10
2022-12-03T23:39:51.098Z,62.70
2022-12-03T23:42:22.981Z,64.20
2022-12-03T23:44:54.786Z,66.10
2022-12-03T23:47:26.374Z,62.10
2022-12-03T23:49:58.013Z,63.60
2022-12-03T23:52:32.403Z,60.40
2022-12-03T23:55:04.560Z,67.60
2022-12-03T23:57:36.490Z,66.20
